Latest Weather Observations for Narrabri

IDN60801

Issued at 1:03 pm EST Wednesday 25 May 2016 (issued every 30 minutes, with the page automatically refreshed every 10 minutes)

About weather observations | Map of weather stations | Latest weather observations for NSW | Other Formats
Station Details ID: 054038 Name: NARRABRI AIRPORT AWS Lat: -30.32 Lon: 149.83 Height: 229.02 m
Data from the previous 72 hours. | See also: Recent months at Narrabri
Date/Time
EST
Temp
°C
App
Temp
°C
Dew
Point
Rel
Hum
%
Delta-T
°C
Wind Press
QNH
hPa
Press
MSL
hPa
Rain
since 9 am
mm
Dir
 
Spd
km/h
Gust
km/h
Spd
kts
Gust
kts
25/01:00pm 20.0 16.1 -1.7 23 9.4 NW 9 15 5 8 1017.0 1016.7 0.0
25/12:30pm 19.2 16.4 -0.2 27 8.6 WSW 4 7 2 4 1017.6 1017.4 0.0
25/12:00pm 18.1 15.1 0.7 31 7.7 NW 6 11 3 6 1018.2 1018.0 0.0
25/11:30am 17.3 13.9 1.7 35 7.1 SW 9 13 5 7 1018.8 1018.6 0.0
25/11:00am 16.2 13.3 2.6 40 6.2 SSW 7 13 4 7 1019.2 1019.0 0.0
25/10:30am 15.2 11.6 2.7 43 5.7 SSE 11 15 6 8 1019.6 1019.4 0.0
25/10:00am 14.3 11.6 3.5 48 4.9 SSW 7 11 4 6 1019.8 1019.6 0.0
25/09:30am 12.3 9.6 3.5 55 4.0 S 7 9 4 5 1020.2 1020.0 0.0
25/09:00am 9.7 7.3 2.3 60 3.2 W 4 7 2 4 1020.3 1020.1 0.0
25/08:30am 6.6 4.2 2.1 73 1.9 S 4 7 2 4 1020.4 1020.2 0.0
25/08:00am 3.9 0.9 1.1 82 1.1 S 6 7 3 4 1020.3 1020.1 0.0
25/07:30am 2.7 0.7 -0.1 82 1.0 CALM 0 6 0 3 1020.1 1019.9 0.0
25/07:00am 1.7 -0.3 -0.2 87 0.7 CALM 0 0 0 0 1020.0 1019.8 0.0
25/06:30am 1.5 -1.3 -0.7 85 0.8 ENE 4 7 2 4 1019.9 1019.7 0.0
25/06:00am 2.1 0.1 -0.2 85 0.9 CALM 0 0 0 0 1019.7 1019.5 0.0
25/05:30am 2.0 0.0 -0.4 84 0.9 CALM 0 0 0 0 1019.5 1019.3 0.0
25/05:00am 2.1 0.0 -0.6 82 1.0 CALM 0 0 0 0 1019.3 1019.1 0.0
25/04:30am 2.5 0.4 -0.6 80 1.1 CALM 0 0 0 0 1019.4 1019.2 0.0
25/04:00am 3.0 1.0 0.1 81 1.1 CALM 0 4 0 2 1019.3 1019.1 0.0
25/03:30am 3.9 0.9 1.1 82 1.1 E 6 7 3 4 1019.7 1019.5 0.0
25/03:00am 3.7 1.7 0.2 78 1.3 CALM 0 6 0 3 1020.0 1019.8 0.0
25/02:30am 4.5 1.3 0.6 76 1.5 S 7 9 4 5 1019.8 1019.6 0.0
25/02:00am 5.6 2.7 -0.9 63 2.5 S 4 6 2 3 1020.0 1019.8 0.0
25/01:30am 9.2 6.2 2.3 62 2.9 SE 7 11 4 6 1020.1 1019.9 0.0
25/01:00am 10.5 6.5 3.1 60 3.2 SE 13 20 7 11 1020.2 1020.0 0.0
25/12:30am 11.2 7.0 3.7 60 3.4 SE 15 20 8 11 1020.4 1020.2 0.0
25/12:00am 10.5 6.6 3.5 62 3.1 SE 13 17 7 9 1020.7 1020.5 0.0
 
Date/Time
EST
Temp
°C
App
Temp
°C
Dew
Point
Rel
Hum
%
Delta-T
°C
Wind Press
QNH
hPa
Press
MSL
hPa
Rain
since 9 am
mm
Dir
 
Spd
km/h
Gust
km/h
Spd
kts
Gust
kts
24/11:30pm 10.2 7.2 3.9 65 2.8 SE 9 15 5 8 1020.9 1020.6 0.0
24/11:00pm 7.0 4.3 2.7 74 1.8 SSE 6 9 3 5 1021.1 1020.8 0.0
24/10:30pm 7.6 4.8 2.3 69 2.2 SSE 6 7 3 4 1020.9 1020.6 0.0
24/10:00pm 8.1 5.7 2.1 66 2.5 SE 4 7 2 4 1021.1 1020.8 0.0
24/09:30pm 9.5 6.3 3.3 65 2.7 ESE 9 11 5 6 1021.2 1020.9 0.0
24/09:00pm 9.0 6.3 2.6 64 2.7 SSE 6 7 3 4 1021.3 1021.1 0.0
24/08:30pm 9.3 5.9 1.7 59 3.2 E 9 13 5 7 1021.1 1020.8 0.0
24/08:00pm 11.5 8.3 3.0 56 3.7 S 9 11 5 6 1020.9 1020.6 0.0
24/07:30pm 11.7 8.4 2.5 53 4.0 S 9 11 5 6 1020.6 1020.4 0.0
24/07:00pm 12.8 9.1 2.1 48 4.7 SSW 11 15 6 8 1020.2 1020.0 0.0
24/06:30pm 14.0 10.7 2.3 45 5.2 SW 9 11 5 6 1019.8 1019.6 0.0
24/06:00pm 14.8 10.2 1.7 41 5.8 SW 15 17 8 9 1019.5 1019.3 0.0
24/05:30pm 16.1 11.2 1.8 38 6.4 WSW 17 26 9 14 1019.2 1019.0 0.0
24/05:00pm 17.9 12.5 1.0 32 7.6 WSW 19 22 10 12 1019.1 1018.9 0.0
24/04:30pm 19.7 15.0 0.7 28 8.6 SW 15 19 8 10 1018.9 1018.7 0.0
24/04:00pm 20.0 14.9 0.5 27 8.8 WSW 17 24 9 13 1018.9 1018.7 0.0
24/03:30pm 20.4 15.8 1.3 28 8.8 WSW 15 24 8 13 1019.0 1018.8 0.0
24/03:00pm 20.1 14.7 1.0 28 8.7 SW 19 28 10 15 1018.8 1018.6 0.0
24/02:30pm 20.2 15.2 1.6 29 8.6 SW 17 26 9 14 1018.9 1018.7 0.0
24/02:00pm 20.0 16.6 1.9 30 8.4 SSE 9 20 5 11 1018.9 1018.7 0.0
24/01:30pm 19.4 15.2 1.9 31 8.1 SE 13 20 7 11 1019.1 1018.9 0.0
24/01:00pm 18.7 14.4 1.2 31 7.9 SSE 13 20 7 11 1019.5 1019.3 0.0
24/12:30pm 18.4 13.5 1.9 33 7.6 SE 17 24 9 13 1020.1 1019.9 0.0
24/12:00pm 18.1 12.3 2.4 35 7.2 SSE 22 32 12 17 1020.7 1020.5 0.0
24/11:30am 18.0 12.2 2.3 35 7.2 SE 22 35 12 19 1021.3 1021.1 0.0
24/11:00am 16.4 13.0 1.7 37 6.6 SSE 9 20 5 11 1022.0 1021.8 0.0
24/10:30am 15.5 11.4 2.0 40 6.1 SSW 13 20 7 11 1022.4 1022.2 0.0
24/10:00am 14.4 11.0 2.0 43 5.5 S 9 20 5 11 1022.5 1022.3 0.0
24/09:30am 13.0 8.8 1.4 45 5.0 SSE 13 20 7 11 1022.3 1022.1 0.0
24/09:00am 12.4 9.0 1.7 48 4.6 SSE 9 15 5 8 1022.2 1022.0 0.0
24/08:30am 9.2 6.2 1.9 60 3.1 S 7 9 4 5 1022.0 1021.8 0.0
24/08:00am 6.7 3.3 1.6 70 2.1 S 9 11 5 6 1022.1 1021.9 0.0
24/07:30am 4.1 0.6 1.0 80 1.2 S 9 11 5 6 1022.1 1021.9 0.0
24/07:00am 2.4 -1.0 -0.9 79 1.2 SSW 7 9 4 5 1022.0 1021.8 0.0
24/06:30am 2.7 -0.7 -0.6 79 1.2 SSE 7 9 4 5 1021.7 1021.5 0.0
24/06:00am 3.2 0.0 -0.4 77 1.3 S 6 7 3 4 1021.5 1021.3 0.0
24/05:30am 3.3 0.1 -0.7 75 1.5 SSE 6 7 3 4 1021.5 1021.3 0.0
24/05:00am 3.6 0.3 -1.2 71 1.8 SW 6 7 3 4 1021.5 1021.3 0.0
24/04:30am 4.6 1.3 -0.2 71 1.8 SSE 7 9 4 5 1021.2 1020.9 0.0
24/04:00am 5.4 2.1 0.2 69 2.0 SSE 7 9 4 5 1021.2 1020.9 0.0
24/03:30am 5.8 2.1 -0.3 65 2.4 S 9 9 5 5 1021.3 1021.1 0.0
24/03:00am 7.6 4.1 1.0 63 2.7 SSE 9 11 5 6 1021.3 1021.1 0.0
24/02:30am 7.9 4.6 0.2 58 3.1 SSE 7 9 4 5 1021.2 1020.9 0.0
24/02:00am 9.5 5.9 0.7 54 3.6 SSE 9 13 5 7 1021.1 1020.8 0.0
24/01:30am 10.7 6.4 1.3 52 4.0 SE 13 17 7 9 1021.0 1020.7 0.0
24/01:00am 10.8 6.6 1.4 52 4.0 SE 13 17 7 9 1021.3 1021.1 0.0
24/12:30am 10.5 6.6 1.1 52 3.9 SE 11 15 6 8 1021.2 1020.9 0.0
24/12:00am 11.3 7.5 1.5 51 4.2 SSE 11 15 6 8 1021.4 1021.2 0.0
 
Date/Time
EST
Temp
°C
App
Temp
°C
Dew
Point
Rel
Hum
%
Delta-T
°C
Wind Press
QNH
hPa
Press
MSL
hPa
Rain
since 9 am
mm
Dir
 
Spd
km/h
Gust
km/h
Spd
kts
Gust
kts
23/11:30pm 11.8 7.9 1.4 49 4.5 SE 11 13 6 7 1021.4 1021.2 0.0
23/11:00pm 13.6 8.2 1.3 43 5.3 S 19 24 10 13 1021.1 1020.8 0.0
23/10:30pm 13.3 9.1 1.6 45 5.1 SSE 13 17 7 9 1021.1 1020.8 0.0
23/10:00pm 14.5 10.3 1.4 41 5.7 SSE 13 17 7 9 1020.9 1020.6 0.0
23/09:30pm 15.6 10.5 1.0 37 6.4 SSE 17 24 9 13 1020.9 1020.6 0.0
23/09:00pm 16.1 11.0 1.0 36 6.6 SSE 17 22 9 12 1020.5 1020.3 0.0
23/08:30pm 16.4 11.5 1.7 37 6.6 S 17 24 9 13 1020.1 1019.9 0.0
23/08:00pm 16.7 13.2 5.3 47 5.5 SSW 13 15 7 8 1019.5 1019.3 0.0
23/07:30pm 18.6 14.0 5.8 43 6.4 SW 19 24 10 13 1019.1 1018.9 0.0
23/07:00pm 20.0 15.4 6.4 41 6.9 SW 20 28 11 15 1018.7 1018.5 0.0
23/06:30pm 19.8 16.0 7.5 45 6.4 WSW 17 26 9 14 1018.3 1018.1 0.0
23/06:00pm 21.0 16.8 8.3 44 6.7 SW 20 26 11 14 1017.8 1017.6 0.0
23/05:30pm 22.3 18.4 9.5 44 7.0 SW 20 24 11 13 1017.2 1016.9 0.0
23/05:00pm 23.4 18.6 8.7 39 7.9 SW 24 35 13 19 1016.7 1016.4 0.0
23/04:30pm 25.1 19.6 9.0 36 8.8 WSW 28 35 15 19 1016.0 1015.8 0.0
23/04:00pm 26.0 20.0 8.5 33 9.5 WSW 30 39 16 21 1015.7 1015.5 0.0
23/03:30pm 27.6 23.5 8.5 30 10.5 W 20 30 11 16 1015.5 1015.3 0.0
23/03:00pm 27.0 23.5 8.9 32 10.0 WSW 17 26 9 14 1015.5 1015.3 0.0
23/02:30pm 27.5 23.1 8.9 31 10.3 WSW 22 30 12 16 1015.5 1015.3 0.0
23/02:00pm 27.6 23.5 8.5 30 10.5 W 20 33 11 18 1015.8 1015.6 0.0
23/01:30pm 27.5 23.3 8.4 30 10.5 WNW 20 30 11 16 1016.1 1015.9 0.0
23/01:00pm 27.2 23.3 8.6 31 10.2 WNW 19 26 10 14 1016.6 1016.3 0.0
23/12:30pm 26.8 22.5 9.2 33 9.8 WNW 22 30 12 16 1017.2 1016.9 0.0
23/12:00pm 26.0 22.2 9.8 36 9.0 NW 20 30 11 16 1017.7 1017.5 0.0
23/11:30am 26.1 22.5 10.7 38 8.7 NNW 20 30 11 16 1018.6 1018.4 0.0
23/11:00am 25.0 21.0 10.5 40 8.1 NNW 22 35 12 19 1019.2 1019.0 0.0
23/10:30am 24.3 20.0 10.6 42 7.7 NNW 24 33 13 18 1019.5 1019.3 0.0
23/10:00am 23.0 17.7 9.8 43 7.2 N 28 35 15 19 1019.8 1019.6 0.0
23/09:30am 22.4 17.9 9.9 45 6.9 N 24 35 13 19 1020.0 1019.8 0.0
23/09:00am 21.9 17.0 10.1 47 6.5 N 26 32 14 17 1019.8 1019.6 0.0
23/08:30am 20.7 15.8 9.9 50 5.9 N 26 33 14 18 1019.9 1019.7 0.0
23/08:00am 19.7 15.8 9.6 52 5.4 NNE 20 28 11 15 1020.1 1019.9 0.0
23/07:30am 18.3 15.3 9.4 56 4.7 NNE 15 19 8 10 1020.1 1019.9 0.0
23/07:00am 17.2 13.4 9.1 59 4.2 NNE 19 22 10 12 1019.8 1019.6 0.0
23/06:30am 16.9 13.8 8.8 59 4.2 N 15 20 8 11 1019.6 1019.4 0.0
23/06:00am 17.3 13.5 9.0 58 4.3 NNE 19 22 10 12 1019.3 1019.1 0.0
23/05:30am 17.1 13.2 9.5 61 4.0 NNE 20 24 11 13 1019.1 1018.9 0.0
23/05:14am 15.5 13.4 11.1 75 2.4 NNE 13 20 7 11 1019.3 1019.1 0.0
23/05:00am 10.1 7.9 5.5 73 2.1 N 6 7 3 4 1019.6 1019.4 0.0
23/04:30am 11.8 9.8 6.9 72 2.4 NNE 7 11 4 6 1019.6 1019.4 0.0
23/04:00am 13.2 10.4 6.8 65 3.1 NE 11 13 6 7 1019.5 1019.3 0.0
23/03:30am 10.7 9.1 6.5 75 2.0 E 4 11 2 6 1019.6 1019.4 0.0
23/03:00am 10.9 10.1 6.5 74 2.1 CALM 0 0 0 0 1019.8 1019.6 0.0
23/02:30am 11.0 10.1 6.2 72 2.3 CALM 0 0 0 0 1019.8 1019.6 0.0
23/02:00am 11.3 10.1 6.4 72 2.3 SSE 2 6 1 3 1019.9 1019.7 0.0
23/01:30am 11.4 9.4 6.1 70 2.5 S 6 7 3 4 1019.8 1019.6 0.0
23/01:00am 12.0 10.4 6.5 69 2.6 SSE 4 7 2 4 1019.8 1019.6 0.0
23/12:30am 12.7 12.0 7.0 68 2.8 CALM 0 0 0 0 1019.9 1019.7 0.0
23/12:00am 12.3 11.1 6.6 68 2.7 ESE 2 7 1 4 1020.2 1020.0 0.0
 
Date/Time
EST
Temp
°C
App
Temp
°C
Dew
Point
Rel
Hum
%
Delta-T
°C
Wind Press
QNH
hPa
Press
MSL
hPa
Rain
since 9 am
mm
Dir
 
Spd
km/h
Gust
km/h
Spd
kts
Gust
kts
22/11:30pm 12.7 11.5 6.5 66 3.0 ESE 2 7 1 4 1020.4 1020.2 0.0
22/11:00pm 13.5 12.7 6.4 62 3.4 CALM 0 0 0 0 1020.6 1020.4 0.0
22/10:30pm 15.6 13.1 6.6 55 4.4 E 9 13 5 7 1020.6 1020.4 0.0
22/10:00pm 15.5 13.7 7.3 58 4.1 E 6 11 3 6 1020.9 1020.6 0.0
22/09:30pm 17.4 14.5 8.0 54 4.8 E 13 17 7 9 1021.0 1020.7 0.0
22/09:00pm 17.5 14.1 7.8 53 5.0 E 15 19 8 10 1021.0 1020.7 0.0
22/08:30pm 18.1 15.2 8.1 52 5.2 E 13 17 7 9 1021.1 1020.8 0.0
22/08:00pm 16.2 12.8 7.7 57 4.3 E 15 17 8 9 1021.3 1021.1 0.0
22/07:30pm 18.8 15.8 7.6 48 5.8 E 13 15 7 8 1021.3 1021.1 0.0
22/07:00pm 18.8 15.8 7.9 49 5.6 ENE 13 15 7 8 1021.0 1020.7 0.0
22/06:30pm 19.1 16.5 7.8 48 5.9 ENE 11 13 6 7 1020.7 1020.5 0.0
22/06:00pm 19.8 17.9 7.5 45 6.3 NNE 7 9 4 5 1020.4 1020.2 0.0
22/05:30pm 21.5 19.7 7.0 39 7.5 N 6 7 3 4 1020.3 1020.1 0.0
22/05:00pm 23.2 20.7 6.5 34 8.6 N 9 11 5 6 1020.3 1020.1 0.0
22/04:30pm 25.3 22.2 7.4 32 9.5 NNW 13 17 7 9 1020.4 1020.2 0.0
22/04:00pm 26.3 24.5 7.8 31 10.0 ENE 7 17 4 9 1020.5 1020.3 0.0
22/03:30pm 26.2 23.2 7.7 31 10.0 NNE 13 19 7 10 1020.6 1020.4 0.0
22/03:00pm 26.7 24.1 7.7 30 10.2 N 11 19 6 10 1020.7 1020.5 0.0
22/02:30pm 26.8 24.7 8.3 31 10.1 NNW 9 15 5 8 1021.0 1020.7 0.0
22/02:00pm 26.7 23.2 8.6 32 9.9 N 17 35 9 19 1021.2 1020.9 0.0
22/01:30pm 26.3 22.8 8.8 33 9.6 NNW 17 24 9 13 1021.5 1021.3 0.0

Other Formats:

Comma delimited format used in spreadsheet applications
http://www.bom.gov.au/fwo/IDN60801/IDN60801.95734.axf

JavaScript Object Notation format (JSON) in row-major order
http://www.bom.gov.au/fwo/IDN60801/IDN60801.95734.json